Time;durP1;ratioP1;P1;durP2;ratioP2;P2;SDS_P1;SDS_P2;PMS_P1;PMS_P2;Temp;Humidity;BMP_temperature;BMP_pressure;BME280_temperature;BME280_humidity;BME280_pressure;Samples;Min_cycle;Max_cycle;Signal;HPM_P1;HPM_P2
2023/08/06 00:01:10;;;;;;;11.00;10.20;;;17.40;76.00;;;;;;6246739;28;20247;-83
2023/08/06 00:04:14;;;;;;;9.20;8.67;;;17.40;76.10;;;;;;6235249;28;20308;-82
2023/08/06 00:07:17;;;;;;;10.30;9.50;;;17.40;76.10;;;;;;6227463;28;20224;-82
2023/08/06 00:10:20;;;;;;;10.03;9.33;;;17.30;76.20;;;;;;6234846;28;20226;-84
2023/08/06 00:13:24;;;;;;;11.67;10.87;;;17.30;76.20;;;;;;6253774;28;20239;-85
2023/08/06 00:16:28;;;;;;;11.10;10.30;;;17.30;76.30;;;;;;6245193;28;20227;-86
2023/08/06 00:19:32;;;;;;;12.20;11.27;;;17.40;76.50;;;;;;6242068;28;20239;-86
2023/08/06 00:22:36;;;;;;;11.43;10.63;;;17.40;76.50;;;;;;6234699;28;20220;-87
2023/08/06 00:25:39;;;;;;;11.60;10.80;;;17.40;76.60;;;;;;6242616;28;20223;-87
2023/08/06 00:28:43;;;;;;;10.77;9.97;;;17.30;76.60;;;;;;6243758;28;20220;-85
2023/08/06 00:31:47;;;;;;;10.67;9.87;;;17.40;76.70;;;;;;6242780;28;20255;-82
2023/08/06 00:34:50;;;;;;;11.50;10.50;;;17.20;76.60;;;;;;6245419;28;20234;-85
2023/08/06 00:37:53;;;;;;;11.07;10.10;;;17.20;76.70;;;;;;6233373;28;20350;-84
2023/08/06 00:40:56;;;;;;;10.13;9.50;;;17.20;76.70;;;;;;6239052;28;20250;-83
2023/08/06 00:44:00;;;;;;;10.30;9.67;;;17.20;76.70;;;;;;6235498;28;20215;-86
2023/08/06 00:47:05;;;;;;;10.33;9.63;;;17.20;76.90;;;;;;6227380;28;20224;-84
2023/08/06 00:50:09;;;;;;;10.17;9.57;;;17.20;76.90;;;;;;6239101;28;20237;-85
2023/08/06 00:53:13;;;;;;;10.33;9.67;;;17.20;76.80;;;;;;6209928;28;20228;-88
2023/08/06 00:56:16;;;;;;;9.83;9.23;;;17.20;76.90;;;;;;6201802;28;20645;-87
2023/08/06 00:59:21;;;;;;;11.10;10.10;;;17.20;76.90;;;;;;6210942;28;20247;-84
2023/08/06 01:02:26;;;;;;;11.17;10.47;;;17.20;76.90;;;;;;6209692;28;20346;-85
2023/08/06 01:05:29;;;;;;;10.30;9.63;;;17.10;76.90;;;;;;6205360;28;20232;-86
2023/08/06 01:08:44;;;;;;;10.27;9.67;;;17.10;77.10;;;;;;6203987;28;20603;-85
2023/08/06 01:11:57;;;;;;;10.37;9.73;;;17.00;77.10;;;;;;6198968;28;20239;-84
2023/08/06 01:15:08;;;;;;;12.40;11.40;;;17.00;77.30;;;;;;6208623;28;21628;-85
2023/08/06 01:18:13;;;;;;;10.80;10.10;;;17.00;77.50;;;;;;6208286;28;20240;-86
2023/08/06 01:21:19;;;;;;;10.17;9.53;;;17.00;77.60;;;;;;6192199;28;20251;-85
2023/08/06 01:24:23;;;;;;;10.10;9.40;;;17.00;77.50;;;;;;6201327;28;20709;-84
2023/08/06 01:27:34;;;;;;;11.17;10.37;;;17.00;77.50;;;;;;6206049;28;20246;-84
2023/08/06 01:30:42;;;;;;;11.00;10.30;;;17.00;77.60;;;;;;6196475;28;20231;-85
2023/08/06 01:33:47;;;;;;;11.20;10.30;;;17.00;77.40;;;;;;6195181;28;20287;-85
2023/08/06 01:36:52;;;;;;;9.97;9.27;;;17.00;77.50;;;;;;6205351;28;20241;-85
2023/08/06 01:39:55;;;;;;;11.60;10.87;;;16.90;77.60;;;;;;6197793;28;20256;-86
2023/08/06 01:42:58;;;;;;;11.30;10.50;;;17.00;77.60;;;;;;6200463;28;20298;-84
2023/08/06 01:46:01;;;;;;;11.03;10.30;;;17.00;77.50;;;;;;6203491;28;20314;-87
2023/08/06 01:49:04;;;;;;;11.93;10.83;;;16.90;77.70;;;;;;6191584;28;20243;-86
2023/08/06 01:52:10;;;;;;;10.87;10.07;;;16.80;78.00;;;;;;6204417;28;20242;-85
2023/08/06 01:55:13;;;;;;;11.07;10.17;;;16.80;78.20;;;;;;6200684;28;20232;-85
2023/08/06 01:58:16;;;;;;;10.60;9.87;;;16.70;78.50;;;;;;6183884;28;20247;-84
2023/08/06 02:01:19;;;;;;;10.50;9.70;;;16.70;78.60;;;;;;6204584;28;20286;-84
2023/08/06 02:04:23;;;;;;;12.10;11.20;;;16.70;78.60;;;;;;6194777;28;20228;-87
2023/08/06 02:07:27;;;;;;;10.90;10.07;;;16.70;78.70;;;;;;6193010;28;20259;-84
2023/08/06 02:10:31;;;;;;;10.27;9.47;;;16.60;78.90;;;;;;6201255;28;20236;-85
2023/08/06 02:13:34;;;;;;;11.03;10.33;;;16.60;79.00;;;;;;6192434;28;20341;-85
2023/08/06 02:16:37;;;;;;;11.33;10.63;;;16.60;79.10;;;;;;6206254;28;20706;-84
2023/08/06 02:19:40;;;;;;;10.27;9.67;;;16.60;79.20;;;;;;6207310;28;20239;-84
2023/08/06 02:22:47;;;;;;;10.83;9.93;;;16.60;79.30;;;;;;6226846;28;20322;-86
2023/08/06 02:25:58;;;;;;;12.83;11.93;;;16.50;79.30;;;;;;6213499;28;20251;-84
2023/08/06 02:29:01;;;;;;;10.40;9.70;;;16.50;79.40;;;;;;6188722;28;20247;-85
2023/08/06 02:32:05;;;;;;;11.00;10.30;;;16.50;79.50;;;;;;6215305;28;20916;-85
2023/08/06 02:35:09;;;;;;;11.23;10.53;;;16.50;79.60;;;;;;6199331;28;20628;-85
2023/08/06 02:38:16;;;;;;;12.50;11.60;;;16.50;79.70;;;;;;6211878;28;20236;-87
2023/08/06 02:41:19;;;;;;;10.93;10.30;;;16.50;79.70;;;;;;6199419;28;20224;-84
2023/08/06 02:44:23;;;;;;;12.13;11.23;;;16.40;79.70;;;;;;6199609;28;20232;-86
2023/08/06 02:47:26;;;;;;;11.13;10.43;;;16.40;79.80;;;;;;6199495;28;20239;-85
2023/08/06 02:50:29;;;;;;;12.67;11.87;;;16.40;79.80;;;;;;6206416;28;20229;-84
2023/08/06 02:53:34;;;;;;;10.40;9.80;;;16.40;80.00;;;;;;6201020;28;20260;-86
2023/08/06 02:56:38;;;;;;;11.37;10.57;;;16.40;80.00;;;;;;6190295;28;20669;-84
2023/08/06 02:59:41;;;;;;;10.30;9.67;;;16.40;80.00;;;;;;6197268;28;20392;-85
2023/08/06 03:02:44;;;;;;;9.90;9.30;;;16.40;79.80;;;;;;6214056;28;20238;-85
2023/08/06 03:05:53;;;;;;;10.40;9.80;;;16.40;79.80;;;;;;6193267;28;20247;-85
2023/08/06 03:08:57;;;;;;;9.57;9.07;;;16.30;79.80;;;;;;6187599;28;20246;-86
2023/08/06 03:12:01;;;;;;;9.27;8.73;;;16.30;79.90;;;;;;6181368;28;1222188;-86
2023/08/06 03:15:04;;;;;;;9.30;8.80;;;16.30;79.80;;;;;;6201539;28;20246;-87
2023/08/06 03:18:07;;;;;;;8.80;8.30;;;16.30;79.90;;;;;;6198111;28;20240;-85
2023/08/06 03:21:11;;;;;;;9.30;8.63;;;16.20;80.00;;;;;;6206803;28;20236;-87
2023/08/06 03:24:16;;;;;;;9.37;8.87;;;16.10;80.10;;;;;;6199042;28;20612;-87
2023/08/06 03:27:19;;;;;;;8.33;7.83;;;16.20;80.00;;;;;;6211301;28;20266;-86
2023/08/06 03:30:22;;;;;;;9.37;8.67;;;16.10;80.10;;;;;;6192790;28;20235;-84
2023/08/06 03:33:25;;;;;;;8.80;8.30;;;16.10;80.30;;;;;;6194082;28;20314;-84
2023/08/06 03:36:28;;;;;;;9.07;8.57;;;16.10;80.30;;;;;;6201832;28;20334;-84
2023/08/06 03:39:33;;;;;;;9.30;8.60;;;16.10;80.40;;;;;;6182368;28;20240;-84
2023/08/06 03:42:36;;;;;;;9.27;8.70;;;16.10;80.40;;;;;;6204751;28;20352;-84
2023/08/06 03:45:39;;;;;;;10.57;9.87;;;16.00;80.50;;;;;;6198797;28;20710;-83
2023/08/06 03:48:42;;;;;;;9.63;9.13;;;16.00;80.60;;;;;;6208715;28;20243;-83
2023/08/06 03:51:46;;;;;;;10.40;9.70;;;16.00;80.70;;;;;;6197567;28;20359;-82
2023/08/06 03:54:50;;;;;;;10.50;9.87;;;16.00;80.80;;;;;;6209040;28;20278;-84
2023/08/06 03:57:54;;;;;;;10.43;9.83;;;16.00;80.80;;;;;;6207035;28;20768;-84
2023/08/06 04:01:00;;;;;;;10.10;9.37;;;16.00;80.90;;;;;;6199303;28;20247;-78
2023/08/06 04:04:04;;;;;;;10.50;9.90;;;16.00;81.00;;;;;;6201334;28;20236;-83
2023/08/06 04:07:08;;;;;;;9.33;8.93;;;16.00;81.00;;;;;;6197333;28;20238;-82
2023/08/06 04:10:12;;;;;;;8.87;8.37;;;16.00;81.20;;;;;;6210290;28;20231;-84
2023/08/06 04:13:15;;;;;;;9.63;9.07;;;15.90;81.20;;;;;;6199567;28;20232;-82
2023/08/06 04:16:18;;;;;;;11.23;10.43;;;16.00;81.20;;;;;;6207950;28;20291;-83
2023/08/06 04:19:21;;;;;;;12.30;11.37;;;16.00;81.20;;;;;;6189719;28;20286;-83
2023/08/06 04:22:25;;;;;;;11.13;10.30;;;16.00;81.50;;;;;;6208906;28;20227;-85
2023/08/06 04:25:29;;;;;;;10.77;9.97;;;16.00;81.50;;;;;;6199563;28;20746;-84
2023/08/06 04:28:32;;;;;;;10.00;9.27;;;15.90;81.60;;;;;;6216853;28;20256;-84
2023/08/06 04:31:35;;;;;;;9.23;8.73;;;15.90;81.60;;;;;;6212738;28;20297;-83
2023/08/06 04:34:39;;;;;;;9.50;8.90;;;16.00;81.50;;;;;;6204863;28;20246;-82
2023/08/06 04:37:42;;;;;;;11.20;10.30;;;16.00;81.50;;;;;;6212443;28;20275;-84
2023/08/06 04:40:47;;;;;;;10.90;10.10;;;16.00;81.50;;;;;;6196637;28;20242;-83
2023/08/06 04:43:50;;;;;;;10.00;9.40;;;16.00;81.60;;;;;;6208643;28;20258;-83
2023/08/06 04:46:53;;;;;;;9.97;9.37;;;16.00;81.60;;;;;;6200329;28;20235;-84
2023/08/06 04:49:56;;;;;;;10.20;9.60;;;16.00;81.60;;;;;;6198859;28;20273;-83
2023/08/06 04:52:59;;;;;;;9.87;9.17;;;16.00;81.60;;;;;;6207267;28;20239;-83
2023/08/06 04:56:04;;;;;;;9.10;8.60;;;16.00;81.60;;;;;;6199974;28;20239;-82
2023/08/06 04:59:07;;;;;;;10.30;9.50;;;16.00;81.60;;;;;;6210590;28;20254;-84
2023/08/06 05:02:10;;;;;;;9.73;9.13;;;16.00;81.60;;;;;;6205801;28;20355;-86
2023/08/06 05:05:13;;;;;;;9.67;9.07;;;16.00;81.50;;;;;;6203523;28;20713;-83
2023/08/06 05:08:17;;;;;;;8.97;8.27;;;16.00;81.50;;;;;;6209893;28;20383;-86
2023/08/06 05:11:22;;;;;;;9.67;9.10;;;16.00;81.60;;;;;;6202667;28;20239;-83
2023/08/06 05:14:25;;;;;;;9.23;8.73;;;16.10;81.40;;;;;;6206677;28;20291;-85
2023/08/06 05:17:28;;;;;;;8.80;8.30;;;16.00;81.30;;;;;;6198983;28;20367;-85
2023/08/06 05:20:31;;;;;;;9.17;8.47;;;16.00;81.40;;;;;;6200264;28;20223;-84
2023/08/06 05:23:34;;;;;;;8.77;8.37;;;16.00;81.30;;;;;;6207683;28;20232;-86
2023/08/06 05:26:39;;;;;;;8.47;8.07;;;16.10;81.20;;;;;;6199787;28;20234;-84
2023/08/06 05:29:43;;;;;;;9.07;8.63;;;16.10;81.20;;;;;;6204136;28;20232;-84
2023/08/06 05:32:46;;;;;;;7.33;7.03;;;16.10;81.10;;;;;;6190820;28;20240;-81
2023/08/06 05:35:50;;;;;;;9.33;8.73;;;16.10;81.00;;;;;;6202929;28;20235;-83
2023/08/06 05:38:54;;;;;;;9.73;9.07;;;16.20;81.10;;;;;;6207578;28;20792;-84
2023/08/06 05:41:58;;;;;;;9.90;9.30;;;16.20;80.90;;;;;;6193962;28;20295;-84
2023/08/06 05:45:01;;;;;;;8.60;8.10;;;16.10;80.90;;;;;;6201828;28;20304;-84
2023/08/06 05:48:05;;;;;;;8.60;8.00;;;16.20;81.00;;;;;;6208614;28;20247;-86
2023/08/06 05:51:08;;;;;;;9.17;8.57;;;16.20;81.00;;;;;;6191997;28;20264;-83
2023/08/06 05:54:11;;;;;;;7.50;7.20;;;16.30;80.70;;;;;;6195088;28;20322;-83
2023/08/06 05:57:15;;;;;;;8.43;8.00;;;16.40;80.40;;;;;;6203483;28;20239;-83
2023/08/06 06:00:19;;;;;;;7.17;6.77;;;16.40;80.00;;;;;;6200323;28;20318;-84
2023/08/06 06:03:22;;;;;;;6.93;6.63;;;16.40;79.90;;;;;;6201473;28;20231;-83
2023/08/06 06:06:25;;;;;;;6.43;6.23;;;16.40;80.00;;;;;;6206487;28;20355;-83
2023/08/06 06:09:28;;;;;;;7.17;6.87;;;16.50;80.10;;;;;;6203086;28;20322;-83
2023/08/06 06:12:33;;;;;;;6.97;6.67;;;16.50;80.10;;;;;;6195805;28;20236;-82
2023/08/06 06:15:36;;;;;;;7.40;7.10;;;16.50;80.00;;;;;;6198622;28;20235;-82
2023/08/06 06:18:39;;;;;;;7.37;7.03;;;16.60;80.00;;;;;;6204261;28;20244;-83
2023/08/06 06:21:42;;;;;;;9.23;8.67;;;16.70;79.90;;;;;;6198249;28;20239;-82
2023/08/06 06:24:45;;;;;;;7.40;6.97;;;16.70;79.60;;;;;;6201222;28;20390;-83
2023/08/06 06:27:50;;;;;;;6.43;6.23;;;16.70;79.60;;;;;;6205504;28;20250;-81
2023/08/06 06:30:53;;;;;;;9.60;9.10;;;16.80;79.60;;;;;;6201511;28;20871;-84
2023/08/06 06:33:56;;;;;;;7.23;6.90;;;16.80;79.60;;;;;;6205930;28;20254;-83
2023/08/06 06:36:59;;;;;;;8.67;8.17;;;16.90;79.50;;;;;;6197144;28;20755;-83
2023/08/06 06:40:03;;;;;;;8.80;8.33;;;17.00;79.50;;;;;;6191662;28;20244;-82
2023/08/06 06:43:08;;;;;;;9.30;8.80;;;17.00;79.60;;;;;;6197389;28;20839;-83
2023/08/06 06:46:11;;;;;;;9.17;8.53;;;17.20;79.50;;;;;;6200600;28;20244;-83
2023/08/06 06:49:17;;;;;;;8.00;7.60;;;17.20;79.30;;;;;;6205929;28;20693;-84
2023/08/06 06:52:20;;;;;;;9.47;8.97;;;17.20;79.20;;;;;;6199824;28;20333;-85
2023/08/06 06:55:23;;;;;;;8.07;7.77;;;17.30;79.10;;;;;;6224460;28;20326;-83
2023/08/06 06:58:28;;;;;;;9.97;9.37;;;17.40;79.10;;;;;;6212061;28;20235;-84
2023/08/06 07:01:31;;;;;;;10.33;9.67;;;17.40;79.00;;;;;;6209153;28;20326;-82
2023/08/06 07:04:35;;;;;;;9.20;8.63;;;17.40;78.30;;;;;;6208584;28;20255;-83
2023/08/06 07:07:38;;;;;;;9.43;8.87;;;17.30;78.20;;;;;;6209914;28;20743;-85
2023/08/06 07:10:42;;;;;;;7.97;7.57;;;17.40;78.40;;;;;;6212628;28;20246;-84
2023/08/06 07:13:47;;;;;;;8.70;8.17;;;17.50;78.60;;;;;;6207247;28;20252;-81
2023/08/06 07:16:50;;;;;;;8.23;7.83;;;17.50;78.60;;;;;;6204530;28;20248;-84
2023/08/06 07:19:53;;;;;;;7.30;7.00;;;17.70;78.50;;;;;;6206645;28;20247;-84
2023/08/06 07:23:06;;;;;;;7.07;6.70;;;17.80;78.20;;;;;;6209654;28;20717;-85
2023/08/06 07:26:10;;;;;;;7.70;7.30;;;17.90;78.00;;;;;;6206661;28;20239;-83
2023/08/06 07:29:19;;;;;;;7.10;6.70;;;18.00;77.80;;;;;;6209210;28;20803;-85
2023/08/06 07:32:22;;;;;;;7.03;6.73;;;18.00;77.60;;;;;;6200365;28;20756;-83
2023/08/06 07:35:26;;;;;;;8.30;7.90;;;18.00;76.80;;;;;;6209903;28;20227;-81
2023/08/06 07:38:31;;;;;;;8.63;8.13;;;17.90;76.60;;;;;;6197343;28;20275;-84
2023/08/06 07:41:36;;;;;;;8.87;8.37;;;17.90;77.00;;;;;;6207281;28;20227;-83
2023/08/06 07:44:40;;;;;;;10.33;9.77;;;18.00;77.20;;;;;;6203901;28;20438;-84
2023/08/06 07:47:43;;;;;;;11.13;10.33;;;17.80;76.60;;;;;;6200121;28;20243;-83
2023/08/06 07:50:50;;;;;;;10.47;9.73;;;17.50;77.00;;;;;;6195063;28;20228;-83
2023/08/06 07:53:53;;;;;;;11.17;10.47;;;17.40;77.60;;;;;;6199643;28;20741;-84
2023/08/06 07:56:56;;;;;;;9.60;9.10;;;17.40;77.80;;;;;;6195759;28;20248;-84
2023/08/06 08:00:01;;;;;;;10.47;9.77;;;17.40;77.50;;;;;;6198947;28;20318;-82
2023/08/06 08:03:04;;;;;;;10.83;10.03;;;17.40;78.10;;;;;;6204034;28;20247;-82
2023/08/06 08:06:07;;;;;;;11.00;10.20;;;17.20;78.10;;;;;;6201348;28;20271;-83
2023/08/06 08:09:11;;;;;;;10.43;9.73;;;17.00;79.10;;;;;;6211569;28;20232;-84
2023/08/06 08:12:14;;;;;;;10.10;9.50;;;17.00;79.30;;;;;;6206843;28;20316;-81
2023/08/06 08:15:18;;;;;;;10.87;10.13;;;16.90;79.40;;;;;;6205603;28;20673;-83
2023/08/06 08:18:23;;;;;;;10.47;9.73;;;16.90;79.70;;;;;;6207499;28;20235;-81
2023/08/06 08:21:26;;;;;;;9.70;9.13;;;16.90;79.70;;;;;;6206839;28;20741;-83
2023/08/06 08:24:31;;;;;;;11.63;10.93;;;17.00;79.50;;;;;;6201432;28;20242;-84
2023/08/06 08:27:34;;;;;;;10.83;10.23;;;17.00;79.20;;;;;;6213014;28;20354;-84
2023/08/06 08:30:39;;;;;;;11.13;10.40;;;17.20;79.00;;;;;;6208567;28;20806;-84
2023/08/06 08:33:42;;;;;;;11.03;10.43;;;17.20;78.70;;;;;;6211326;28;20235;-82
2023/08/06 08:36:47;;;;;;;11.53;10.80;;;17.20;78.80;;;;;;6210206;28;20603;-84
2023/08/06 08:39:50;;;;;;;11.67;10.73;;;17.30;79.10;;;;;;6204536;28;20228;-84
2023/08/06 08:42:53;;;;;;;9.90;9.20;;;17.50;79.20;;;;;;6208401;28;20235;-83
2023/08/06 08:45:59;;;;;;;10.20;9.50;;;17.50;78.80;;;;;;6183323;28;20236;-83
2023/08/06 08:49:03;;;;;;;10.10;9.50;;;17.80;79.20;;;;;;6202833;28;20236;-84
2023/08/06 08:52:10;;;;;;;10.80;10.03;;;18.00;78.70;;;;;;6202549;28;20239;-84
2023/08/06 08:55:16;;;;;;;11.10;10.40;;;18.10;77.70;;;;;;6205230;28;20758;-83
2023/08/06 08:58:19;;;;;;;12.57;11.67;;;18.30;77.70;;;;;;6200163;28;20239;-85
2023/08/06 09:01:29;;;;;;;12.97;12.07;;;18.40;77.30;;;;;;6210559;28;20259;-84
2023/08/06 09:04:34;;;;;;;13.70;12.47;;;18.50;76.80;;;;;;6206153;28;20243;-81
2023/08/06 09:07:44;;;;;;;10.93;10.23;;;18.50;76.20;;;;;;6195323;28;20231;-83
2023/08/06 09:10:49;;;;;;;13.17;12.27;;;18.60;76.70;;;;;;6203161;28;20239;-84
2023/08/06 09:13:55;;;;;;;11.83;11.03;;;18.60;76.30;;;;;;6197147;28;20228;-83
2023/08/06 09:16:59;;;;;;;12.50;11.63;;;18.60;76.70;;;;;;6205968;28;20239;-82
2023/08/06 09:20:11;;;;;;;14.47;13.37;;;18.80;76.70;;;;;;6199509;28;20232;-83
2023/08/06 09:23:14;;;;;;;12.63;11.83;;;18.70;75.80;;;;;;6204045;28;20240;-83
2023/08/06 09:26:17;;;;;;;11.87;11.20;;;18.80;75.50;;;;;;6198873;28;20254;-83
2023/08/06 09:29:21;;;;;;;13.27;12.30;;;18.90;75.40;;;;;;6192364;28;20630;-83
2023/08/06 09:32:25;;;;;;;12.43;11.60;;;18.90;75.00;;;;;;6189728;28;20259;-82
2023/08/06 09:35:30;;;;;;;12.93;12.13;;;19.00;75.40;;;;;;6202883;28;20351;-84
2023/08/06 09:38:39;;;;;;;12.73;11.73;;;19.00;74.70;;;;;;6204122;28;20246;-83
2023/08/06 09:41:43;;;;;;;13.67;12.67;;;18.90;75.20;;;;;;6191776;28;20247;-83
2023/08/06 09:44:46;;;;;;;13.90;12.93;;;18.90;74.80;;;;;;6203551;28;20234;-81
2023/08/06 09:47:56;;;;;;;13.40;12.50;;;18.90;75.20;;;;;;6197168;28;20306;-84
2023/08/06 09:51:00;;;;;;;12.23;11.43;;;18.90;75.30;;;;;;6192863;28;20320;-83
2023/08/06 09:54:05;;;;;;;12.33;11.57;;;18.70;74.30;;;;;;6197286;28;20228;-83
2023/08/06 09:57:28;;;;;;;14.53;13.53;;;18.70;74.70;;;;;;6199971;28;20318;-84
2023/08/06 10:00:33;;;;;;;13.97;12.97;;;18.70;75.20;;;;;;6199853;28;20633;-83
2023/08/06 10:03:45;;;;;;;15.30;14.13;;;18.70;75.80;;;;;;6201207;28;20230;-85
2023/08/06 10:06:49;;;;;;;14.00;13.00;;;18.70;75.80;;;;;;6201044;28;20243;-83
2023/08/06 10:09:52;;;;;;;13.17;12.27;;;18.70;76.10;;;;;;6216150;28;20265;-84
2023/08/06 10:12:57;;;;;;;11.60;10.80;;;18.60;75.80;;;;;;6200032;28;20234;-83
2023/08/06 10:16:03;;;;;;;10.93;10.13;;;18.60;75.70;;;;;;6204353;28;20240;-85
2023/08/06 10:19:13;;;;;;;11.27;10.57;;;18.50;75.70;;;;;;6203752;28;20748;-85
2023/08/06 10:22:17;;;;;;;11.07;10.37;;;18.30;75.80;;;;;;6209827;28;20231;-83
2023/08/06 10:25:20;;;;;;;11.23;10.53;;;18.30;75.90;;;;;;6202369;28;20239;-83
2023/08/06 10:28:35;;;;;;;13.00;12.13;;;18.20;76.30;;;;;;6199077;28;20246;-82
2023/08/06 10:32:00;;;;;;;7.83;7.43;;;18.30;76.60;;;;;;6213473;28;20236;-83
2023/08/06 10:35:05;;;;;;;6.43;6.23;;;18.40;75.10;;;;;;6205600;28;20727;-82
2023/08/06 10:38:10;;;;;;;7.40;7.10;;;18.40;73.80;;;;;;6203858;28;20250;-83
2023/08/06 10:41:19;;;;;;;8.07;7.67;;;18.40;72.90;;;;;;6207522;28;20240;-83
2023/08/06 10:44:23;;;;;;;7.67;7.27;;;18.40;73.20;;;;;;6208781;28;20236;-84
2023/08/06 10:47:39;;;;;;;7.87;7.57;;;18.50;73.50;;;;;;6192009;28;20236;-84
2023/08/06 10:50:47;;;;;;;8.50;8.00;;;18.50;73.70;;;;;;6211616;28;20246;-84
2023/08/06 10:53:51;;;;;;;8.47;8.07;;;18.50;74.20;;;;;;6204981;28;20255;-84
2023/08/06 10:56:54;;;;;;;7.27;6.93;;;18.50;74.40;;;;;;6202229;28;20239;-84
2023/08/06 10:59:57;;;;;;;7.47;7.00;;;18.60;74.20;;;;;;6207344;28;20251;-83
2023/08/06 11:03:18;;;;;;;7.00;6.70;;;18.70;73.90;;;;;;6203072;28;20239;-85
2023/08/06 11:06:24;;;;;;;6.70;6.30;;;18.80;73.80;;;;;;6216062;28;20239;-83
2023/08/06 11:09:27;;;;;;;8.83;8.37;;;18.90;73.70;;;;;;6203153;28;20232;-84
2023/08/06 11:12:31;;;;;;;8.77;8.30;;;19.00;73.10;;;;;;6199181;28;20608;-83
2023/08/06 11:15:34;;;;;;;9.43;8.73;;;19.00;73.40;;;;;;6213439;28;20240;-84
2023/08/06 11:18:38;;;;;;;9.40;8.90;;;19.00;73.00;;;;;;6200679;28;20255;-83
2023/08/06 11:21:43;;;;;;;9.43;8.93;;;18.90;74.00;;;;;;6210883;28;20235;-84
2023/08/06 11:24:47;;;;;;;7.27;6.87;;;19.00;73.40;;;;;;6209970;28;20239;-83
2023/08/06 11:27:51;;;;;;;7.00;6.70;;;18.90;71.60;;;;;;6208306;28;20244;-82
2023/08/06 11:30:55;;;;;;;7.70;7.30;;;18.90;72.50;;;;;;6201159;28;20259;-83
2023/08/06 11:33:58;;;;;;;7.60;7.20;;;19.00;72.60;;;;;;6181826;28;20539;-82
2023/08/06 11:37:05;;;;;;;7.60;7.20;;;19.10;72.50;;;;;;6211729;28;20326;-82
2023/08/06 11:40:11;;;;;;;8.43;7.83;;;19.20;72.30;;;;;;6202272;28;20643;-82
2023/08/06 11:43:15;;;;;;;7.37;7.03;;;19.20;72.00;;;;;;6211328;28;20227;-83
2023/08/06 11:46:18;;;;;;;7.87;7.57;;;19.20;72.50;;;;;;6203684;28;20243;-83
2023/08/06 11:49:21;;;;;;;7.13;6.73;;;19.20;72.20;;;;;;6202185;28;20244;-83
2023/08/06 11:52:26;;;;;;;7.73;7.33;;;19.10;71.40;;;;;;6209773;28;20227;-83
2023/08/06 11:55:30;;;;;;;6.67;6.37;;;19.10;72.40;;;;;;6200717;28;20301;-83
2023/08/06 11:58:33;;;;;;;6.90;6.60;;;19.10;72.00;;;;;;6205229;28;20240;-82
2023/08/06 12:01:36;;;;;;;7.27;6.87;;;19.10;72.90;;;;;;6203781;28;20247;-83
2023/08/06 12:04:59;;;;;;;7.30;7.00;;;19.10;72.80;;;;;;6205948;28;20248;-84
2023/08/06 12:08:04;;;;;;;7.07;6.67;;;19.20;72.70;;;;;;6198248;28;20336;-83
2023/08/06 12:11:07;;;;;;;10.67;9.97;;;19.30;73.00;;;;;;6203951;28;20326;-85
2023/08/06 12:14:10;;;;;;;9.03;8.63;;;19.40;73.00;;;;;;6210895;28;20311;-83
2023/08/06 12:17:13;;;;;;;8.90;8.40;;;19.50;73.00;;;;;;6208396;28;20227;-83
2023/08/06 12:20:17;;;;;;;7.00;6.70;;;19.50;72.50;;;;;;6197765;28;20362;-83
2023/08/06 12:23:22;;;;;;;7.33;6.97;;;19.50;72.40;;;;;;6198688;28;20279;-83
2023/08/06 12:26:25;;;;;;;10.33;9.63;;;19.50;72.40;;;;;;6196950;28;20724;-85
2023/08/06 12:29:28;;;;;;;9.83;9.23;;;19.50;72.50;;;;;;6203586;28;20801;-82
2023/08/06 12:32:31;;;;;;;10.97;10.33;;;19.40;72.80;;;;;;6208663;28;20307;-83
2023/08/06 12:35:35;;;;;;;11.20;10.50;;;19.30;72.50;;;;;;6212044;28;20235;-84
2023/08/06 12:38:39;;;;;;;11.37;10.57;;;18.90;72.70;;;;;;6204261;28;20584;-83
2023/08/06 12:41:43;;;;;;;11.33;10.53;;;18.60;74.00;;;;;;6208307;28;20263;-84
2023/08/06 12:44:46;;;;;;;10.70;10.00;;;18.60;74.30;;;;;;6208765;28;20231;-83
2023/08/06 12:47:51;;;;;;;11.70;10.90;;;18.60;75.20;;;;;;6208567;28;20647;-82
2023/08/06 12:50:54;;;;;;;11.73;10.90;;;18.60;75.20;;;;;;6214216;28;20329;-85
2023/08/06 12:53:59;;;;;;;11.63;10.83;;;18.60;75.30;;;;;;6212765;28;20247;-83
2023/08/06 12:57:02;;;;;;;12.00;11.20;;;18.50;75.60;;;;;;6198106;28;20265;-85
2023/08/06 13:00:06;;;;;;;12.50;11.70;;;18.50;75.70;;;;;;6205740;28;20304;-85
2023/08/06 13:03:09;;;;;;;12.60;11.70;;;18.40;76.20;;;;;;6206889;28;20242;-84
2023/08/06 13:06:12;;;;;;;12.80;11.93;;;18.50;76.50;;;;;;6207513;28;20240;-84
2023/08/06 13:09:17;;;;;;;14.00;13.00;;;18.30;76.50;;;;;;6209103;28;20227;-83
2023/08/06 13:12:22;;;;;;;11.97;11.07;;;18.30;77.00;;;;;;6200885;28;20239;-84
2023/08/06 13:15:26;;;;;;;12.90;11.80;;;18.30;76.70;;;;;;6206293;28;20752;-84
2023/08/06 13:18:29;;;;;;;12.43;11.57;;;18.30;76.90;;;;;;6203164;28;20843;-84
2023/08/06 13:21:36;;;;;;;12.47;11.67;;;18.30;76.70;;;;;;6207571;28;21734;-84
2023/08/06 13:24:41;;;;;;;12.40;11.50;;;18.20;76.80;;;;;;6200182;28;20315;-83
2023/08/06 13:27:45;;;;;;;12.13;11.17;;;18.20;77.20;;;;;;6202450;28;20751;-84
2023/08/06 13:30:48;;;;;;;13.17;11.93;;;18.10;77.30;;;;;;6193282;28;20847;-85
2023/08/06 13:33:55;;;;;;;11.63;10.80;;;18.10;77.40;;;;;;6203781;28;20238;-83
2023/08/06 13:36:58;;;;;;;12.33;11.40;;;18.10;77.50;;;;;;6204277;28;20240;-83
2023/08/06 13:40:03;;;;;;;12.17;11.27;;;18.10;77.80;;;;;;6196498;28;20333;-84
2023/08/06 13:43:06;;;;;;;13.97;12.87;;;18.00;77.90;;;;;;6197336;28;20235;-84
2023/08/06 13:46:14;;;;;;;13.07;12.07;;;18.00;78.50;;;;;;6201651;28;20317;-84
2023/08/06 13:49:18;;;;;;;12.83;11.87;;;18.00;78.80;;;;;;6194466;28;20275;-84
2023/08/06 13:52:22;;;;;;;11.17;10.37;;;18.00;78.70;;;;;;6202157;28;20240;-84
2023/08/06 13:55:26;;;;;;;13.13;12.17;;;18.00;78.90;;;;;;6199139;28;20234;-83
2023/08/06 13:58:29;;;;;;;12.97;11.97;;;18.10;78.70;;;;;;6199065;28;20266;-83
2023/08/06 14:01:33;;;;;;;12.40;11.43;;;18.00;78.60;;;;;;6204372;28;20240;-84
2023/08/06 14:04:54;;;;;;;13.30;12.30;;;17.80;78.80;;;;;;6202975;28;20244;-83
2023/08/06 14:07:57;;;;;;;11.03;10.20;;;17.80;79.20;;;;;;6210550;28;20254;-84
2023/08/06 14:11:01;;;;;;;13.43;12.23;;;17.60;79.70;;;;;;6214236;28;20235;-77
2023/08/06 14:14:05;;;;;;;11.50;10.73;;;17.70;79.70;;;;;;6205669;28;20232;-78
2023/08/06 14:17:08;;;;;;;11.10;10.30;;;17.80;79.80;;;;;;6202424;28;20318;-78
2023/08/06 14:20:12;;;;;;;8.40;7.83;;;17.80;79.80;;;;;;6200234;28;20282;-78
2023/08/06 14:23:15;;;;;;;7.13;6.77;;;17.90;78.60;;;;;;6201634;28;20242;-79
2023/08/06 14:26:19;;;;;;;7.60;6.97;;;17.90;78.10;;;;;;6218539;28;20262;-81
2023/08/06 14:29:22;;;;;;;7.07;6.60;;;18.00;77.20;;;;;;6237221;28;20243;-79
2023/08/06 14:32:26;;;;;;;7.30;6.90;;;17.90;76.30;;;;;;6244268;28;20232;-87
2023/08/06 14:35:29;;;;;;;7.73;7.23;;;17.80;76.60;;;;;;6247399;28;20235;-81
2023/08/06 14:38:32;;;;;;;9.30;8.70;;;17.80;76.90;;;;;;6235271;28;20227;-87
2023/08/06 14:41:40;;;;;;;8.93;8.33;;;17.80;77.40;;;;;;6246314;28;20220;-82
2023/08/06 14:44:43;;;;;;;9.90;9.00;;;17.80;77.70;;;;;;6245094;28;20220;-80
2023/08/06 14:47:46;;;;;;;7.90;7.30;;;17.80;78.40;;;;;;6248158;28;20254;-81
2023/08/06 14:50:50;;;;;;;7.30;6.90;;;17.80;78.30;;;;;;6238316;28;20223;-80
2023/08/06 14:53:53;;;;;;;6.77;6.47;;;17.90;78.00;;;;;;6237954;28;20216;-82
2023/08/06 14:56:57;;;;;;;6.67;6.37;;;17.90;77.90;;;;;;6242752;28;20223;-78
2023/08/06 15:00:01;;;;;;;7.10;6.70;;;17.90;77.90;;;;;;6248950;28;20227;-82
2023/08/06 15:03:04;;;;;;;6.30;6.00;;;18.00;78.00;;;;;;6231587;28;20224;-84
2023/08/06 15:06:07;;;;;;;7.07;6.57;;;18.00;78.10;;;;;;6243855;28;20254;-82
2023/08/06 15:09:10;;;;;;;5.30;5.03;;;18.00;78.30;;;;;;6243198;28;20231;-84
2023/08/06 15:12:15;;;;;;;4.83;4.63;;;18.00;77.20;;;;;;6246714;28;20230;-83
2023/08/06 15:15:18;;;;;;;5.93;5.73;;;18.00;77.00;;;;;;6235747;28;20227;-84
2023/08/06 15:18:22;;;;;;;5.27;4.97;;;18.00;76.90;;;;;;6237652;28;20230;-83
2023/08/06 15:21:24;;;;;;;4.73;4.33;;;18.00;76.50;;;;;;6253279;28;20391;-82
2023/08/06 15:24:28;;;;;;;5.40;5.03;;;17.90;75.50;;;;;;6238988;28;20218;-80
2023/08/06 15:27:33;;;;;;;5.33;4.90;;;17.80;75.40;;;;;;6240627;28;20216;-82
2023/08/06 15:30:36;;;;;;;5.47;5.17;;;17.90;75.40;;;;;;6243632;28;20287;-84
2023/08/06 15:33:42;;;;;;;5.10;4.80;;;17.90;75.80;;;;;;6242779;28;20223;-82
2023/08/06 15:36:45;;;;;;;5.43;5.03;;;17.90;75.40;;;;;;6251802;28;20254;-81
2023/08/06 15:39:48;;;;;;;4.57;4.33;;;17.90;75.50;;;;;;6235827;28;20219;-82
2023/08/06 15:42:52;;;;;;;4.17;4.07;;;17.80;75.70;;;;;;6245355;28;20232;-81
2023/08/06 15:45:55;;;;;;;4.93;4.67;;;17.80;75.20;;;;;;6233233;28;20224;-82
2023/08/06 15:48:58;;;;;;;5.03;4.80;;;17.80;75.50;;;;;;6245466;28;20292;-81